sensor_id;sensor_type;location;lat;lon;timestamp;pressure;altitude;pressure_sealevel;temperature;humidity
33163;BME280;29282;45.656;11.302;2023-07-20T00:01:45;97947.13;;;25.58;59.62
33163;BME280;29282;45.656;11.302;2023-07-20T00:04:11;97950.53;;;25.29;61.14
33163;BME280;29282;45.656;11.302;2023-07-20T00:06:37;97943.72;;;25.13;61.56
33163;BME280;29282;45.656;11.302;2023-07-20T00:09:08;97938.09;;;24.98;61.99
33163;BME280;29282;45.656;11.302;2023-07-20T00:11:37;97920.50;;;24.73;62.66
33163;BME280;29282;45.656;11.302;2023-07-20T00:14:06;97906.38;;;24.92;61.98
33163;BME280;29282;45.656;11.302;2023-07-20T00:16:32;97904.19;;;25.26;60.51
33163;BME280;29282;45.656;11.302;2023-07-20T00:18:58;97906.25;;;25.47;60.09
33163;BME280;29282;45.656;11.302;2023-07-20T00:21:24;97902.31;;;25.55;59.57
33163;BME280;29282;45.656;11.302;2023-07-20T00:23:49;97880.88;;;25.42;60.47
33163;BME280;29282;45.656;11.302;2023-07-20T00:26:15;97864.63;;;25.40;60.66
33163;BME280;29282;45.656;11.302;2023-07-20T00:28:40;97881.16;;;25.12;61.43
33163;BME280;29282;45.656;11.302;2023-07-20T00:31:06;97883.09;;;25.11;61.68
33163;BME280;29282;45.656;11.302;2023-07-20T00:33:32;97868.50;;;25.14;61.44
33163;BME280;29282;45.656;11.302;2023-07-20T00:35:57;97844.31;;;25.11;61.54
33163;BME280;29282;45.656;11.302;2023-07-20T00:38:23;97870.53;;;25.28;61.09
33163;BME280;29282;45.656;11.302;2023-07-20T00:40:49;97907.00;;;25.30;61.29
33163;BME280;29282;45.656;11.302;2023-07-20T00:43:15;97922.00;;;25.25;61.72
33163;BME280;29282;45.656;11.302;2023-07-20T00:45:43;97923.25;;;25.39;60.65
33163;BME280;29282;45.656;11.302;2023-07-20T00:48:10;97930.72;;;25.24;61.74
33163;BME280;29282;45.656;11.302;2023-07-20T00:50:36;97942.44;;;25.03;62.21
33163;BME280;29282;45.656;11.302;2023-07-20T00:53:04;97941.91;;;24.79;62.92
33163;BME280;29282;45.656;11.302;2023-07-20T00:55:32;97933.47;;;24.61;63.36
33163;BME280;29282;45.656;11.302;2023-07-20T00:57:59;97914.94;;;24.73;62.96
33163;BME280;29282;45.656;11.302;2023-07-20T01:00:25;97924.50;;;24.82;62.78
33163;BME280;29282;45.656;11.302;2023-07-20T01:02:51;97940.50;;;25.07;61.65
33163;BME280;29282;45.656;11.302;2023-07-20T01:05:17;97937.44;;;25.19;61.55
33163;BME280;29282;45.656;11.302;2023-07-20T01:08:12;97944.47;;;25.09;61.57
33163;BME280;29282;45.656;11.302;2023-07-20T01:10:48;97949.63;;;25.11;61.65
33163;BME280;29282;45.656;11.302;2023-07-20T01:13:18;97954.06;;;25.23;61.30
33163;BME280;29282;45.656;11.302;2023-07-20T01:15:49;97967.59;;;25.28;61.42
33163;BME280;29282;45.656;11.302;2023-07-20T01:18:15;97965.22;;;25.30;60.87
33163;BME280;29282;45.656;11.302;2023-07-20T01:20:41;97958.47;;;25.24;61.61
33163;BME280;29282;45.656;11.302;2023-07-20T01:31:50;97924.34;;;25.16;61.63
33163;BME280;29282;45.656;11.302;2023-07-20T01:34:18;97918.47;;;25.28;60.58
33163;BME280;29282;45.656;11.302;2023-07-20T01:36:46;97905.41;;;25.36;61.10
33163;BME280;29282;45.656;11.302;2023-07-20T01:39:12;97905.03;;;25.41;61.14
33163;BME280;29282;45.656;11.302;2023-07-20T01:41:38;97908.56;;;25.31;61.29
33163;BME280;29282;45.656;11.302;2023-07-20T01:44:04;97925.19;;;25.27;61.59
33163;BME280;29282;45.656;11.302;2023-07-20T01:46:29;97914.47;;;25.22;61.70
33163;BME280;29282;45.656;11.302;2023-07-20T01:48:58;97925.44;;;25.01;62.29
33163;BME280;29282;45.656;11.302;2023-07-20T01:51:24;97921.88;;;25.00;62.30
33163;BME280;29282;45.656;11.302;2023-07-20T01:53:49;97922.25;;;24.99;62.21
33163;BME280;29282;45.656;11.302;2023-07-20T01:56:15;97930.53;;;24.92;62.32
33163;BME280;29282;45.656;11.302;2023-07-20T01:58:40;97920.59;;;24.83;62.69
33163;BME280;29282;45.656;11.302;2023-07-20T02:01:06;97918.63;;;24.88;62.64
33163;BME280;29282;45.656;11.302;2023-07-20T02:03:31;97915.75;;;24.73;62.87
33163;BME280;29282;45.656;11.302;2023-07-20T02:05:57;97916.97;;;24.79;62.59
33163;BME280;29282;45.656;11.302;2023-07-20T02:08:23;97917.50;;;24.99;61.82
33163;BME280;29282;45.656;11.302;2023-07-20T02:10:49;97920.66;;;24.98;62.08
33163;BME280;29282;45.656;11.302;2023-07-20T02:13:17;97912.63;;;24.82;62.42
33163;BME280;29282;45.656;11.302;2023-07-20T02:15:45;97913.06;;;24.84;62.29
33163;BME280;29282;45.656;11.302;2023-07-20T02:18:12;97893.41;;;25.07;61.32
33163;BME280;29282;45.656;11.302;2023-07-20T02:20:38;97881.41;;;24.89;61.90
33163;BME280;29282;45.656;11.302;2023-07-20T02:23:05;97871.56;;;25.02;61.47
33163;BME280;29282;45.656;11.302;2023-07-20T02:25:31;97865.66;;;25.03;61.34
33163;BME280;29282;45.656;11.302;2023-07-20T02:27:56;97873.94;;;25.00;61.52
33163;BME280;29282;45.656;11.302;2023-07-20T02:30:22;97866.72;;;24.81;62.02
33163;BME280;29282;45.656;11.302;2023-07-20T02:32:48;97865.19;;;24.87;62.09
33163;BME280;29282;45.656;11.302;2023-07-20T02:35:14;97867.56;;;24.92;61.86
33163;BME280;29282;45.656;11.302;2023-07-20T02:37:40;97872.25;;;24.77;62.20
33163;BME280;29282;45.656;11.302;2023-07-20T02:40:06;97873.41;;;24.76;62.27
33163;BME280;29282;45.656;11.302;2023-07-20T02:42:33;97867.84;;;24.73;62.36
33163;BME280;29282;45.656;11.302;2023-07-20T02:44:58;97860.31;;;24.70;62.13
33163;BME280;29282;45.656;11.302;2023-07-20T02:47:24;97864.69;;;24.71;61.96
33163;BME280;29282;45.656;11.302;2023-07-20T02:49:50;97857.25;;;24.85;61.59
33163;BME280;29282;45.656;11.302;2023-07-20T02:52:16;97859.63;;;24.83;61.71
33163;BME280;29282;45.656;11.302;2023-07-20T02:54:41;97856.78;;;24.76;61.81
33163;BME280;29282;45.656;11.302;2023-07-20T02:57:07;97857.53;;;24.66;62.23
33163;BME280;29282;45.656;11.302;2023-07-20T02:59:35;97854.72;;;24.59;62.16
33163;BME280;29282;45.656;11.302;2023-07-20T03:02:02;97849.56;;;24.54;62.30
33163;BME280;29282;45.656;11.302;2023-07-20T03:04:27;97851.50;;;24.50;62.42
33163;BME280;29282;45.656;11.302;2023-07-20T03:06:53;97852.72;;;24.56;62.12
33163;BME280;29282;45.656;11.302;2023-07-20T03:09:18;97856.34;;;24.64;61.76
33163;BME280;29282;45.656;11.302;2023-07-20T03:11:44;97846.13;;;24.78;61.49
33163;BME280;29282;45.656;11.302;2023-07-20T03:14:09;97845.69;;;24.69;61.60
33163;BME280;29282;45.656;11.302;2023-07-20T03:16:36;97845.63;;;24.62;61.84
33163;BME280;29282;45.656;11.302;2023-07-20T03:19:01;97841.25;;;24.54;61.90
33163;BME280;29282;45.656;11.302;2023-07-20T03:21:27;97839.28;;;24.54;61.87
33163;BME280;29282;45.656;11.302;2023-07-20T03:23:53;97840.47;;;24.57;61.80
33163;BME280;29282;45.656;11.302;2023-07-20T03:26:19;97843.69;;;24.70;61.36
33163;BME280;29282;45.656;11.302;2023-07-20T03:28:45;97852.75;;;24.59;61.64
33163;BME280;29282;45.656;11.302;2023-07-20T03:31:10;97850.06;;;24.70;61.11
33163;BME280;29282;45.656;11.302;2023-07-20T03:33:36;97858.38;;;24.70;61.04
33163;BME280;29282;45.656;11.302;2023-07-20T03:36:02;97850.34;;;24.51;61.74
33163;BME280;29282;45.656;11.302;2023-07-20T03:38:27;97845.53;;;24.44;62.01
33163;BME280;29282;45.656;11.302;2023-07-20T03:40:57;97839.38;;;24.72;61.01
33163;BME280;29282;45.656;11.302;2023-07-20T03:43:24;97837.06;;;24.85;60.63
33163;BME280;29282;45.656;11.302;2023-07-20T03:45:51;97840.63;;;24.85;60.54
33163;BME280;29282;45.656;11.302;2023-07-20T03:48:18;97837.41;;;24.80;60.66
33163;BME280;29282;45.656;11.302;2023-07-20T03:50:45;97843.63;;;24.55;61.23
33163;BME280;29282;45.656;11.302;2023-07-20T03:53:12;97841.09;;;24.39;61.85
33163;BME280;29282;45.656;11.302;2023-07-20T03:55:37;97838.38;;;24.43;61.78
33163;BME280;29282;45.656;11.302;2023-07-20T03:58:03;97841.16;;;24.43;61.51
33163;BME280;29282;45.656;11.302;2023-07-20T04:00:28;97847.03;;;24.34;61.56
33163;BME280;29282;45.656;11.302;2023-07-20T04:02:54;97847.88;;;24.42;61.15
33163;BME280;29282;45.656;11.302;2023-07-20T04:05:20;97855.53;;;24.63;60.50
33163;BME280;29282;45.656;11.302;2023-07-20T04:07:45;97858.41;;;24.77;60.40
33163;BME280;29282;45.656;11.302;2023-07-20T04:10:12;97852.03;;;24.73;60.48
33163;BME280;29282;45.656;11.302;2023-07-20T04:12:38;97848.81;;;24.64;60.54
33163;BME280;29282;45.656;11.302;2023-07-20T04:15:04;97848.47;;;24.73;60.33
33163;BME280;29282;45.656;11.302;2023-07-20T04:17:30;97848.47;;;24.73;60.19
33163;BME280;29282;45.656;11.302;2023-07-20T04:19:55;97853.88;;;24.48;61.05
33163;BME280;29282;45.656;11.302;2023-07-20T04:22:21;97857.03;;;24.50;61.03
33163;BME280;29282;45.656;11.302;2023-07-20T04:24:47;97855.34;;;24.34;61.22
33163;BME280;29282;45.656;11.302;2023-07-20T04:27:12;97865.97;;;24.32;61.68
33163;BME280;29282;45.656;11.302;2023-07-20T04:29:38;97867.56;;;24.33;61.44
33163;BME280;29282;45.656;11.302;2023-07-20T04:32:03;97862.78;;;24.30;61.68
33163;BME280;29282;45.656;11.302;2023-07-20T04:34:29;97861.22;;;24.33;61.49
33163;BME280;29282;45.656;11.302;2023-07-20T04:36:55;97858.59;;;24.44;61.19
33163;BME280;29282;45.656;11.302;2023-07-20T04:39:20;97863.63;;;24.34;61.22
33163;BME280;29282;45.656;11.302;2023-07-20T04:41:46;97869.06;;;24.24;61.74
33163;BME280;29282;45.656;11.302;2023-07-20T04:44:14;97859.38;;;24.44;61.00
33163;BME280;29282;45.656;11.302;2023-07-20T04:46:39;97862.16;;;24.44;60.96
33163;BME280;29282;45.656;11.302;2023-07-20T04:49:05;97864.13;;;24.44;60.88
33163;BME280;29282;45.656;11.302;2023-07-20T04:51:31;97861.75;;;24.46;60.86
33163;BME280;29282;45.656;11.302;2023-07-20T04:53:57;97859.44;;;24.55;60.66
33163;BME280;29282;45.656;11.302;2023-07-20T04:56:23;97861.75;;;24.46;60.85
33163;BME280;29282;45.656;11.302;2023-07-20T04:58:50;97864.81;;;24.37;60.89
33163;BME280;29282;45.656;11.302;2023-07-20T05:01:15;97869.94;;;24.31;61.04
33163;BME280;29282;45.656;11.302;2023-07-20T05:03:41;97857.81;;;24.47;60.49
33163;BME280;29282;45.656;11.302;2023-07-20T05:06:06;97863.00;;;24.52;59.99
33163;BME280;29282;45.656;11.302;2023-07-20T05:08:32;97866.69;;;24.70;59.60
33163;BME280;29282;45.656;11.302;2023-07-20T05:10:57;97861.19;;;24.81;59.34
33163;BME280;29282;45.656;11.302;2023-07-20T05:13:24;97867.84;;;24.73;59.71
33163;BME280;29282;45.656;11.302;2023-07-20T05:15:53;97865.03;;;24.62;59.67
33163;BME280;29282;45.656;11.302;2023-07-20T05:18:19;97858.38;;;24.74;59.40
33163;BME280;29282;45.656;11.302;2023-07-20T05:20:46;97857.66;;;24.84;59.25
33163;BME280;29282;45.656;11.302;2023-07-20T05:23:12;97860.88;;;24.97;58.63
33163;BME280;29282;45.656;11.302;2023-07-20T05:25:38;97847.06;;;25.07;58.60
33163;BME280;29282;45.656;11.302;2023-07-20T05:28:03;97849.84;;;25.11;58.49
33163;BME280;29282;45.656;11.302;2023-07-20T05:30:29;97853.38;;;25.01;58.94
33163;BME280;29282;45.656;11.302;2023-07-20T05:32:54;97859.72;;;25.05;58.94
33163;BME280;29282;45.656;11.302;2023-07-20T05:35:20;97854.97;;;25.09;59.02
33163;BME280;29282;45.656;11.302;2023-07-20T05:37:46;97857.41;;;25.14;58.85
33163;BME280;29282;45.656;11.302;2023-07-20T05:40:12;97857.31;;;25.00;59.16
33163;BME280;29282;45.656;11.302;2023-07-20T05:42:40;97862.91;;;25.07;59.13
33163;BME280;29282;45.656;11.302;2023-07-20T05:45:06;97869.25;;;25.11;59.58
33163;BME280;29282;45.656;11.302;2023-07-20T05:47:32;97867.31;;;25.15;59.48
33163;BME280;29282;45.656;11.302;2023-07-20T05:49:58;97871.28;;;25.14;59.77
33163;BME280;29282;45.656;11.302;2023-07-20T05:52:23;97866.13;;;25.20;59.30
33163;BME280;29282;45.656;11.302;2023-07-20T05:54:49;97865.78;;;25.28;59.44
33163;BME280;29282;45.656;11.302;2023-07-20T05:57:14;97872.53;;;25.31;58.78
33163;BME280;29282;45.656;11.302;2023-07-20T05:59:40;97869.75;;;25.35;59.03
33163;BME280;29282;45.656;11.302;2023-07-20T06:02:09;97872.94;;;25.33;58.87
33163;BME280;29282;45.656;11.302;2023-07-20T06:04:34;97870.56;;;25.39;59.10
33163;BME280;29282;45.656;11.302;2023-07-20T06:07:00;97874.94;;;25.43;58.89
33163;BME280;29282;45.656;11.302;2023-07-20T06:09:26;97871.41;;;25.50;58.92
33163;BME280;29282;45.656;11.302;2023-07-20T06:11:52;97872.19;;;25.50;58.88
33163;BME280;29282;45.656;11.302;2023-07-20T06:14:18;97870.63;;;25.53;58.71
33163;BME280;29282;45.656;11.302;2023-07-20T06:16:43;97868.63;;;25.53;58.86
33163;BME280;29282;45.656;11.302;2023-07-20T06:19:09;97877.34;;;25.55;58.88
33163;BME280;29282;45.656;11.302;2023-07-20T06:21:38;97874.19;;;25.57;58.72
33163;BME280;29282;45.656;11.302;2023-07-20T06:24:03;97880.53;;;25.58;58.68
33163;BME280;29282;45.656;11.302;2023-07-20T06:26:29;97876.19;;;25.57;58.67
33163;BME280;29282;45.656;11.302;2023-07-20T06:28:56;97878.13;;;25.56;58.79
33163;BME280;29282;45.656;11.302;2023-07-20T06:31:21;97879.75;;;25.57;58.54
33163;BME280;29282;45.656;11.302;2023-07-20T06:33:47;97880.13;;;25.59;58.77
33163;BME280;29282;45.656;11.302;2023-07-20T06:36:12;97886.88;;;25.62;58.70
33163;BME280;29282;45.656;11.302;2023-07-20T06:38:38;97883.72;;;25.63;58.54
33163;BME280;29282;45.656;11.302;2023-07-20T06:41:03;97883.31;;;25.61;59.51
33163;BME280;29282;45.656;11.302;2023-07-20T06:43:29;97883.69;;;25.52;59.83
33163;BME280;29282;45.656;11.302;2023-07-20T06:45:54;97885.28;;;25.53;60.09
33163;BME280;29282;45.656;11.302;2023-07-20T06:48:21;97894.38;;;25.50;60.00
33163;BME280;29282;45.656;11.302;2023-07-20T06:50:46;97886.09;;;25.61;60.27
33163;BME280;29282;45.656;11.302;2023-07-20T06:53:12;97888.88;;;25.65;59.76
33163;BME280;29282;45.656;11.302;2023-07-20T06:55:38;97881.78;;;25.82;60.75
33163;BME280;29282;45.656;11.302;2023-07-20T06:58:04;97883.31;;;25.68;60.79
33163;BME280;29282;45.656;11.302;2023-07-20T07:00:30;97884.97;;;25.80;59.20
33163;BME280;29282;45.656;11.302;2023-07-20T07:02:55;97885.34;;;25.82;60.51
33163;BME280;29282;45.656;11.302;2023-07-20T07:05:21;97891.72;;;25.86;60.39
33163;BME280;29282;45.656;11.302;2023-07-20T07:07:47;97892.91;;;25.96;60.29
33163;BME280;29282;45.656;11.302;2023-07-20T07:10:12;97884.63;;;26.03;60.88
33163;BME280;29282;45.656;11.302;2023-07-20T07:12:40;97887.78;;;26.05;59.46
33163;BME280;29282;45.656;11.302;2023-07-20T07:15:06;97886.97;;;26.05;59.01
33163;BME280;29282;45.656;11.302;2023-07-20T07:17:36;97891.75;;;26.11;60.19
33163;BME280;29282;45.656;11.302;2023-07-20T07:20:01;97900.47;;;26.13;58.76
33163;BME280;29282;45.656;11.302;2023-07-20T07:22:27;97891.38;;;26.13;59.70
33163;BME280;29282;45.656;11.302;2023-07-20T07:24:52;97891.75;;;26.15;59.43
33163;BME280;29282;45.656;11.302;2023-07-20T07:27:19;97895.31;;;26.15;59.20
33163;BME280;29282;45.656;11.302;2023-07-20T07:29:44;97898.91;;;26.16;60.17
33163;BME280;29282;45.656;11.302;2023-07-20T07:32:10;97900.47;;;26.17;59.48
33163;BME280;29282;45.656;11.302;2023-07-20T07:34:36;97908.03;;;26.20;61.10
33163;BME280;29282;45.656;11.302;2023-07-20T07:37:03;97913.97;;;26.25;60.05
33163;BME280;29282;45.656;11.302;2023-07-20T07:39:29;97908.03;;;26.27;60.30
33163;BME280;29282;45.656;11.302;2023-07-20T07:41:55;97906.03;;;26.31;59.88
33163;BME280;29282;45.656;11.302;2023-07-20T07:44:21;97912.38;;;26.32;60.44
33163;BME280;29282;45.656;11.302;2023-07-20T07:46:47;97912.00;;;26.33;59.76
33163;BME280;29282;45.656;11.302;2023-07-20T07:49:12;97916.75;;;26.33;60.30
33163;BME280;29282;45.656;11.302;2023-07-20T07:51:38;97912.38;;;26.39;60.19
33163;BME280;29282;45.656;11.302;2023-07-20T07:54:04;97911.19;;;26.40;59.33
33163;BME280;29282;45.656;11.302;2023-07-20T07:56:29;97915.16;;;26.39;59.99
33163;BME280;29282;45.656;11.302;2023-07-20T07:58:55;97910.00;;;26.37;59.31
33163;BME280;29282;45.656;11.302;2023-07-20T08:01:20;97907.63;;;26.36;56.96
33163;BME280;29282;45.656;11.302;2023-07-20T08:03:47;97911.56;;;26.42;56.46
33163;BME280;29282;45.656;11.302;2023-07-20T08:06:13;97911.19;;;26.43;57.06
33163;BME280;29282;45.656;11.302;2023-07-20T08:08:39;97916.34;;;26.45;56.17
33163;BME280;29282;45.656;11.302;2023-07-20T08:11:04;97909.63;;;26.42;55.75
33163;BME280;29282;45.656;11.302;2023-07-20T08:13:30;97917.13;;;26.42;56.28
33163;BME280;29282;45.656;11.302;2023-07-20T08:16:15;97914.75;;;26.40;57.15
33163;BME280;29282;45.656;11.302;2023-07-20T08:18:41;97910.78;;;26.38;57.58
33163;BME280;29282;45.656;11.302;2023-07-20T08:21:06;97920.31;;;26.37;57.29
33163;BME280;29282;45.656;11.302;2023-07-20T08:23:32;97918.34;;;26.37;57.49
33163;BME280;29282;45.656;11.302;2023-07-20T08:25:58;97910.78;;;26.38;57.66
33163;BME280;29282;45.656;11.302;2023-07-20T08:28:23;97914.78;;;26.37;57.41
33163;BME280;29282;45.656;11.302;2023-07-20T08:30:49;97916.34;;;26.38;57.50
33163;BME280;29282;45.656;11.302;2023-07-20T08:33:16;97916.34;;;26.38;57.79
33163;BME280;29282;45.656;11.302;2023-07-20T08:35:46;97916.34;;;26.38;57.62
33163;BME280;29282;45.656;11.302;2023-07-20T08:38:12;97917.13;;;26.38;57.68
33163;BME280;29282;45.656;11.302;2023-07-20T08:40:45;97913.19;;;26.39;57.73
33163;BME280;29282;45.656;11.302;2023-07-20T08:43:11;97913.97;;;26.40;58.01
33163;BME280;29282;45.656;11.302;2023-07-20T08:45:39;97914.75;;;26.40;58.10
33163;BME280;29282;45.656;11.302;2023-07-20T08:48:05;97912.00;;;26.40;57.89
33163;BME280;29282;45.656;11.302;2023-07-20T08:50:34;97910.78;;;26.41;57.92
33163;BME280;29282;45.656;11.302;2023-07-20T08:53:01;97921.09;;;26.44;58.02
33163;BME280;29282;45.656;11.302;2023-07-20T08:55:28;97924.28;;;26.43;57.71
33163;BME280;29282;45.656;11.302;2023-07-20T08:57:55;97927.88;;;26.43;57.79
33163;BME280;29282;45.656;11.302;2023-07-20T09:00:22;97924.69;;;26.45;58.00
33163;BME280;29282;45.656;11.302;2023-07-20T09:02:54;97927.44;;;26.45;57.62
33163;BME280;29282;45.656;11.302;2023-07-20T09:05:23;97926.28;;;26.46;57.88
33163;BME280;29282;45.656;11.302;2023-07-20T09:07:52;97925.09;;;26.47;58.06
33163;BME280;29282;45.656;11.302;2023-07-20T09:10:21;97924.28;;;26.46;58.08
33163;BME280;29282;45.656;11.302;2023-07-20T09:12:47;97914.78;;;26.47;57.56
33163;BME280;29282;45.656;11.302;2023-07-20T09:15:13;97917.19;;;26.49;57.64
33163;BME280;29282;45.656;11.302;2023-07-20T09:17:39;97903.28;;;26.49;58.03
33163;BME280;29282;45.656;11.302;2023-07-20T09:20:08;97910.44;;;26.50;58.12
33163;BME280;29282;45.656;11.302;2023-07-20T09:22:38;97907.66;;;26.50;58.00
33163;BME280;29282;45.656;11.302;2023-07-20T09:25:14;97903.66;;;26.51;57.74
33163;BME280;29282;45.656;11.302;2023-07-20T09:27:47;97906.06;;;26.49;57.71
33163;BME280;29282;45.656;11.302;2023-07-20T09:30:14;97902.09;;;26.50;58.06
33163;BME280;29282;45.656;11.302;2023-07-20T09:35:21;97906.06;;;26.53;57.94
33163;BME280;29282;45.656;11.302;2023-07-20T09:37:54;97902.47;;;26.52;57.59
33163;BME280;29282;45.656;11.302;2023-07-20T09:40:20;97903.28;;;26.53;57.66
33163;BME280;29282;45.656;11.302;2023-07-20T09:42:47;97906.84;;;26.53;57.71
33163;BME280;29282;45.656;11.302;2023-07-20T09:45:13;97904.47;;;26.52;58.02
33163;BME280;29282;45.656;11.302;2023-07-20T09:47:39;97902.09;;;26.54;57.89
33163;BME280;29282;45.656;11.302;2023-07-20T09:50:06;97900.09;;;26.54;57.73
33163;BME280;29282;45.656;11.302;2023-07-20T09:52:38;97905.66;;;26.54;57.92
33163;BME280;29282;45.656;11.302;2023-07-20T09:55:08;97906.84;;;26.53;57.89
33163;BME280;29282;45.656;11.302;2023-07-20T09:57:34;97906.06;;;26.53;57.57
33163;BME280;29282;45.656;11.302;2023-07-20T10:00:06;97904.47;;;26.52;57.77
33163;BME280;29282;45.656;11.302;2023-07-20T10:02:45;97910.81;;;26.52;58.02
33163;BME280;29282;45.656;11.302;2023-07-20T10:05:16;97905.66;;;26.51;57.73
33163;BME280;29282;45.656;11.302;2023-07-20T10:07:51;97895.34;;;26.51;57.93
33163;BME280;29282;45.656;11.302;2023-07-20T10:10:18;97896.91;;;26.52;57.62
33163;BME280;29282;45.656;11.302;2023-07-20T10:12:47;97904.47;;;26.52;57.95
33163;BME280;29282;45.656;11.302;2023-07-20T10:15:20;97907.25;;;26.52;57.90
33163;BME280;29282;45.656;11.302;2023-07-20T10:20:36;97904.47;;;26.55;57.67
33163;BME280;29282;45.656;11.302;2023-07-20T10:23:04;97893.34;;;26.55;57.84
33163;BME280;29282;45.656;11.302;2023-07-20T10:25:31;97897.72;;;26.56;57.67
33163;BME280;29282;45.656;11.302;2023-07-20T10:27:58;97900.50;;;26.56;57.58
33163;BME280;29282;45.656;11.302;2023-07-20T10:30:25;97897.31;;;26.54;57.81
33163;BME280;29282;45.656;11.302;2023-07-20T10:32:51;97906.44;;;26.55;57.84
33163;BME280;29282;45.656;11.302;2023-07-20T10:35:18;97904.88;;;26.54;57.68
33163;BME280;29282;45.656;11.302;2023-07-20T10:37:52;97903.28;;;26.53;57.37
33163;BME280;29282;45.656;11.302;2023-07-20T10:40:37;97901.69;;;26.55;57.71
33163;BME280;29282;45.656;11.302;2023-07-20T10:43:05;97892.16;;;26.56;57.85
33163;BME280;29282;45.656;11.302;2023-07-20T10:45:42;97895.31;;;26.58;57.63
33163;BME280;29282;45.656;11.302;2023-07-20T10:48:16;97890.19;;;26.57;57.51
33163;BME280;29282;45.656;11.302;2023-07-20T10:50:43;97892.53;;;26.58;57.63
33163;BME280;29282;45.656;11.302;2023-07-20T10:53:17;97892.53;;;26.58;57.94
33163;BME280;29282;45.656;11.302;2023-07-20T10:55:43;97887.00;;;26.58;57.75
33163;BME280;29282;45.656;11.302;2023-07-20T10:58:14;97886.59;;;26.60;57.86
33163;BME280;29282;45.656;11.302;2023-07-20T11:01:00;97887.41;;;26.60;57.87
33163;BME280;29282;45.656;11.302;2023-07-20T11:03:33;97885.00;;;26.59;57.71
33163;BME280;29282;45.656;11.302;2023-07-20T11:05:59;97884.63;;;26.60;57.72
33163;BME280;29282;45.656;11.302;2023-07-20T11:08:41;97893.34;;;26.59;57.98
33163;BME280;29282;45.656;11.302;2023-07-20T11:11:33;97886.19;;;26.58;57.85
33163;BME280;29282;45.656;11.302;2023-07-20T11:13:59;97889.41;;;26.56;57.69
33163;BME280;29282;45.656;11.302;2023-07-20T11:16:43;97880.66;;;26.58;57.72
33163;BME280;29282;45.656;11.302;2023-07-20T11:19:24;97877.06;;;26.57;57.69
33163;BME280;29282;45.656;11.302;2023-07-20T11:21:54;97879.84;;;26.57;57.87
33163;BME280;29282;45.656;11.302;2023-07-20T11:24:20;97880.28;;;26.56;57.51
33163;BME280;29282;45.656;11.302;2023-07-20T11:26:53;97870.72;;;26.57;57.58
33163;BME280;29282;45.656;11.302;2023-07-20T11:29:20;97872.72;;;26.56;57.73
33163;BME280;29282;45.656;11.302;2023-07-20T11:31:47;97878.66;;;26.58;57.35
33163;BME280;29282;45.656;11.302;2023-07-20T11:34:20;97875.50;;;26.56;57.40
33163;BME280;29282;45.656;11.302;2023-07-20T11:36:50;97865.56;;;26.55;57.43
33163;BME280;29282;45.656;11.302;2023-07-20T11:39:17;97865.19;;;26.57;57.82
33163;BME280;29282;45.656;11.302;2023-07-20T11:41:47;97865.97;;;26.57;57.59
33163;BME280;29282;45.656;11.302;2023-07-20T11:44:13;97867.16;;;26.56;57.91
33163;BME280;29282;45.656;11.302;2023-07-20T11:46:41;97863.59;;;26.56;57.75
33163;BME280;29282;45.656;11.302;2023-07-20T11:49:07;97859.22;;;26.58;57.68
33163;BME280;29282;45.656;11.302;2023-07-20T11:51:34;97853.66;;;26.58;57.41
33163;BME280;29282;45.656;11.302;2023-07-20T11:54:02;97855.25;;;26.59;57.66
33163;BME280;29282;45.656;11.302;2023-07-20T11:56:27;97849.69;;;26.59;57.69
33163;BME280;29282;45.656;11.302;2023-07-20T11:59:00;97849.69;;;26.59;57.65
33163;BME280;29282;45.656;11.302;2023-07-20T12:01:28;97844.13;;;26.59;57.46
33163;BME280;29282;45.656;11.302;2023-07-20T12:04:03;97853.25;;;26.60;57.74
33163;BME280;29282;45.656;11.302;2023-07-20T12:06:30;97837.38;;;26.60;57.55
33163;BME280;29282;45.656;11.302;2023-07-20T12:08:57;97835.81;;;26.59;57.76
33163;BME280;29282;45.656;11.302;2023-07-20T12:11:37;97837.38;;;26.60;57.72
33163;BME280;29282;45.656;11.302;2023-07-20T12:14:07;97836.59;;;26.60;57.51
33163;BME280;29282;45.656;11.302;2023-07-20T12:16:37;97828.25;;;26.60;57.37
33163;BME280;29282;45.656;11.302;2023-07-20T12:19:08;97832.63;;;26.61;57.50
33163;BME280;29282;45.656;11.302;2023-07-20T12:21:37;97821.91;;;26.59;57.70
33163;BME280;29282;45.656;11.302;2023-07-20T12:24:04;97828.25;;;26.60;57.75
33163;BME280;29282;45.656;11.302;2023-07-20T12:26:33;97829.84;;;26.61;57.33
33163;BME280;29282;45.656;11.302;2023-07-20T12:29:02;97836.19;;;26.61;57.36
33163;BME280;29282;45.656;11.302;2023-07-20T12:31:33;97830.63;;;26.61;57.72
33163;BME280;29282;45.656;11.302;2023-07-20T12:34:02;97825.84;;;26.62;57.71
33163;BME280;29282;45.656;11.302;2023-07-20T12:36:33;97819.91;;;26.63;57.29
33163;BME280;29282;45.656;11.302;2023-07-20T12:38:59;97821.13;;;26.62;57.47
33163;BME280;29282;45.656;11.302;2023-07-20T12:41:26;97825.84;;;26.62;57.62
33163;BME280;29282;45.656;11.302;2023-07-20T12:43:53;97812.78;;;26.62;57.69
33163;BME280;29282;45.656;11.302;2023-07-20T12:46:24;97815.56;;;26.62;57.36
33163;BME280;29282;45.656;11.302;2023-07-20T12:48:50;97815.94;;;26.64;57.69
33163;BME280;29282;45.656;11.302;2023-07-20T12:51:17;97812.38;;;26.64;57.72
33163;BME280;29282;45.656;11.302;2023-07-20T12:53:43;97809.59;;;26.64;57.40
33163;BME280;29282;45.656;11.302;2023-07-20T12:56:09;97819.50;;;26.65;57.57
33163;BME280;29282;45.656;11.302;2023-07-20T12:58:35;97811.56;;;26.67;57.71
33163;BME280;29282;45.656;11.302;2023-07-20T13:01:02;97804.41;;;26.69;57.66
33163;BME280;29282;45.656;11.302;2023-07-20T13:03:27;97809.19;;;26.73;57.78
33163;BME280;29282;45.656;11.302;2023-07-20T13:05:53;97807.19;;;26.73;58.00